Ar-Tux, Xinjiang Uygur

1:15 PM CST on October 02, 2014 (GMT +0800)
Kashi | Change Station
CLOSE
Current Station
Airport
Location: Kashi,
Elevation: 4528 ft
Nearby Weather Stations

Elev 4528 ft 39.54 °N, 76.02 °E | Updated 15 minutes ago

Clear
Clear
73 °F
Feels Like 73 °F
N
4
Wind Variable Wind from East

Today
High -- | Low -- °F
--% Chance of Precip.
Yesterday
High -- | Low -- °F
Precip. -- in
8:52 AM 8:36 PM
First Quarter, 55% visible
Pressure 30.06 in
Visibility -9999.0 miles
Clouds
Dew Point 37 °F
Humidity 27%
Rainfall 0.00 in
Snow Depth Not available.
UV Not available.
Pollen Not available.
Air Quality Not available.
Flu Activity Not available.
METAR ZWSH 010500Z 09002MPS 060V130 CAVOK 23/03 Q1018 NOSIG

More Conditions Fewer Conditions

Pressure 30.06 in
Visibility -9999.0 miles
Clouds
Dew Point 37 °F
Humidity 27%
Rainfall 0.00 in
Snow Depth Not available.
UV Not available.
Pollen Not available.
Air Quality Not available.
Flu Activity Not available.
METAR ZWSH 010500Z 09002MPS 060V130 CAVOK 23/03 Q1018 NOSIG

More Conditions Fewer Conditions

10-Day Weather Forecast

Almanac

Astronomy

Oct. 02, 2014 Rise Set
Actual Time 8:52 AM CST 8:36 PM CST
Civil Twilight 8:25 AM CST 9:03 PM CST
Nautical Twilight 7:53 AM CST 9:34 PM CST
Astronomical Twilight 7:22 AM CST 10:06 PM CST
Moon 4:19 PM CST 1:42 AM CST
Length of Visible Light 12h 38m
Length of Day
11h 44m
Tomorrow will be 2m 34s shorter.
First Quarter, 55% of the Moon is Illuminated
Today
First Quarter
Oct 8
Full
Oct 15
Last Quarter
Oct 23
New
Oct 30
First Quarter

Yesterday's Extremes

Country Highs Country Lows

Community

WunderPhotos

Upload Photos

1,758,195 photos uploaded!

Nearby

Snow Depth

Not available.

Earthquake Activity

City Distance Mag. Time & Date
No recent earthquake activity has been reported nearby.
Minimum magnitude displayed is 2.5.

Coastal Water Temperatures

Place Temperature
No Stations Reporting

Nearby Weather Stations